Time;durP1;ratioP1;P1;durP2;ratioP2;P2;SDS_P1;SDS_P2;PMS_P1;PMS_P2;Temp;Humidity;BMP_temperature;BMP_pressure;BME280_temperature;BME280_humidity;BME280_pressure;Samples;Min_cycle;Max_cycle;Signal;HPM_P1;HPM_P2
2022/06/07 00:02:08;;;;;;;15.63;7.57;;;12.10;99.90;;;;;;5005185;28;20113;-58
2022/06/07 00:04:36;;;;;;;14.38;7.13;;;12.10;99.90;;;;;;5003281;28;20475;-59
2022/06/07 00:07:02;;;;;;;13.77;7.05;;;12.00;99.90;;;;;;5005111;28;20053;-58
2022/06/07 00:09:29;;;;;;;14.18;7.53;;;12.10;99.90;;;;;;5003885;28;20585;-59
2022/06/07 00:11:55;;;;;;;15.65;7.97;;;12.10;99.90;;;;;;5004330;28;20046;-58
2022/06/07 00:14:21;;;;;;;15.02;7.47;;;12.20;99.90;;;;;;5004039;28;20517;-59
2022/06/07 00:16:47;;;;;;;14.63;7.15;;;12.10;99.90;;;;;;5003775;28;20094;-59
2022/06/07 00:19:13;;;;;;;14.93;7.45;;;12.10;99.90;;;;;;5004860;28;20042;-58
2022/06/07 00:21:38;;;;;;;17.13;7.68;;;12.10;99.90;;;;;;5003191;28;20046;-58
2022/06/07 00:24:05;;;;;;;16.45;8.48;;;12.20;99.90;;;;;;5006629;28;20072;-59
2022/06/07 00:26:33;;;;;;;18.60;8.32;;;12.10;99.90;;;;;;5023114;28;20033;-59
2022/06/07 00:29:00;;;;;;;18.58;8.35;;;12.10;99.90;;;;;;5023904;28;20487;-58
2022/06/07 00:31:26;;;;;;;16.52;7.88;;;12.10;99.90;;;;;;5023750;28;20070;-58
2022/06/07 00:33:53;;;;;;;16.45;8.98;;;12.10;99.90;;;;;;5022959;28;20501;-59
2022/06/07 00:36:18;;;;;;;17.17;8.85;;;12.10;99.90;;;;;;5024249;28;20053;-59
2022/06/07 00:38:45;;;;;;;14.75;7.88;;;12.00;99.90;;;;;;5022683;28;20054;-59
2022/06/07 00:41:12;;;;;;;15.88;8.35;;;12.10;99.90;;;;;;5023952;28;20077;-57
2022/06/07 00:43:38;;;;;;;17.23;7.85;;;12.10;99.90;;;;;;5022709;28;20042;-59
2022/06/07 00:46:09;;;;;;;13.75;8.45;;;12.10;99.90;;;;;;5023663;28;20508;-59
2022/06/07 00:48:36;;;;;;;16.92;8.50;;;12.10;99.90;;;;;;5020091;28;20085;-59
2022/06/07 00:51:12;;;;;;;15.43;8.23;;;12.10;99.90;;;;;;5002919;28;20046;-58
2022/06/07 00:53:38;;;;;;;17.30;8.57;;;12.10;99.90;;;;;;5004363;28;20038;-59
2022/06/07 00:56:05;;;;;;;15.43;8.00;;;12.20;99.90;;;;;;5002570;28;20050;-59
2022/06/07 00:58:32;;;;;;;16.25;7.45;;;12.10;99.90;;;;;;5004044;28;20042;-59
2022/06/07 01:00:59;;;;;;;15.60;8.30;;;12.10;99.90;;;;;;5002966;28;20054;-59
2022/06/07 01:03:26;;;;;;;15.32;8.35;;;12.20;99.90;;;;;;5003437;28;20052;-59
2022/06/07 01:05:53;;;;;;;13.18;8.23;;;12.10;99.90;;;;;;5003559;28;20636;-58
2022/06/07 01:11:04;;;;;;;17.65;8.55;;;12.10;99.90;;;;;;5003884;28;20046;-59
2022/06/07 01:13:32;;;;;;;15.15;8.00;;;12.10;99.90;;;;;;5002196;28;20054;-59
2022/06/07 01:16:01;;;;;;;15.25;8.80;;;12.20;99.90;;;;;;5003668;28;20054;-59
2022/06/07 01:18:28;;;;;;;13.75;8.00;;;12.20;99.90;;;;;;5003386;28;20051;-59
2022/06/07 01:21:14;;;;;;;12.50;8.25;;;12.10;99.90;;;;;;5002357;28;20077;-58
2022/06/07 01:23:42;;;;;;;15.20;8.50;;;12.20;99.90;;;;;;5020430;28;20038;-59
2022/06/07 01:26:09;;;;;;;17.23;9.00;;;12.20;99.90;;;;;;5021558;28;20049;-55
2022/06/07 01:28:35;;;;;;;16.98;8.73;;;12.20;99.90;;;;;;5023057;28;20046;-59
2022/06/07 01:31:00;;;;;;;13.57;8.68;;;12.10;99.90;;;;;;5022254;28;20053;-59
2022/06/07 01:33:26;;;;;;;14.52;8.52;;;12.20;99.90;;;;;;5022689;28;20649;-59
2022/06/07 01:36:07;;;;;;;14.90;7.93;;;12.10;99.90;;;;;;5022936;28;20378;-59
2022/06/07 01:38:34;;;;;;;19.70;8.20;;;12.20;99.90;;;;;;5021314;28;20054;-59
2022/06/07 01:43:45;;;;;;;17.77;9.02;;;12.20;99.90;;;;;;5021331;28;20081;-57
2022/06/07 01:46:11;;;;;;;14.52;8.23;;;12.20;99.90;;;;;;5022382;28;20038;-59
2022/06/07 01:48:37;;;;;;;17.88;8.20;;;12.20;99.90;;;;;;5018710;28;20030;-59
2022/06/07 01:51:08;;;;;;;22.30;9.38;;;12.20;99.90;;;;;;5002036;28;20035;-59
2022/06/07 01:53:35;;;;;;;21.10;9.88;;;12.10;99.90;;;;;;5003368;28;20046;-59
2022/06/07 01:56:10;;;;;;;15.88;8.98;;;12.20;99.90;;;;;;5001262;28;20060;-59
2022/06/07 01:58:37;;;;;;;14.82;8.32;;;12.20;99.90;;;;;;4985675;28;20050;-58
2022/06/07 02:01:03;;;;;;;14.00;7.80;;;12.20;99.90;;;;;;4968522;28;20130;-59
2022/06/07 02:03:29;;;;;;;13.18;8.20;;;12.30;99.90;;;;;;5002207;28;20046;-59
2022/06/07 02:06:17;;;;;;;14.63;8.65;;;12.30;99.90;;;;;;5002743;28;20058;-59
2022/06/07 02:08:43;;;;;;;16.30;8.30;;;12.20;99.90;;;;;;5001242;28;20039;-60
2022/06/07 02:11:11;;;;;;;17.17;8.45;;;12.30;99.90;;;;;;4985286;28;20077;-59
2022/06/07 02:13:38;;;;;;;23.90;9.18;;;12.30;99.90;;;;;;5000724;28;20050;-58
2022/06/07 02:16:04;;;;;;;14.38;8.13;;;12.40;99.90;;;;;;5002477;28;20054;-59
2022/06/07 02:18:31;;;;;;;15.82;8.77;;;12.30;99.90;;;;;;5001181;28;20050;-58
2022/06/07 02:20:59;;;;;;;14.07;8.68;;;12.30;99.90;;;;;;5001550;28;20039;-59
2022/06/07 02:23:26;;;;;;;14.68;8.68;;;12.30;99.90;;;;;;5017251;28;20057;-59
2022/06/07 02:25:54;;;;;;;14.63;8.30;;;12.20;99.90;;;;;;5020457;28;20120;-59
2022/06/07 02:28:23;;;;;;;14.13;8.90;;;12.10;99.90;;;;;;5022233;28;20046;-59
2022/06/07 02:30:49;;;;;;;16.88;9.13;;;12.10;99.90;;;;;;5020542;28;20065;-58
2022/06/07 02:33:15;;;;;;;17.73;10.07;;;12.20;99.90;;;;;;5021737;28;20042;-59
2022/06/07 02:35:43;;;;;;;19.02;9.68;;;12.30;99.90;;;;;;5021727;28;20049;-58
2022/06/07 02:38:09;;;;;;;15.98;9.55;;;12.00;99.90;;;;;;5020745;28;20060;-58
2022/06/07 02:40:35;;;;;;;17.33;10.50;;;11.80;99.90;;;;;;5021811;28;20048;-58
2022/06/07 02:43:02;;;;;;;22.65;11.35;;;11.80;99.90;;;;;;5002595;28;20069;-55
2022/06/07 02:45:28;;;;;;;16.60;10.85;;;11.80;99.90;;;;;;5021784;28;20042;-57
2022/06/07 02:47:53;;;;;;;20.20;11.18;;;11.80;99.90;;;;;;5020549;28;20046;-58
2022/06/07 02:50:19;;;;;;;19.05;10.20;;;11.70;99.90;;;;;;5003489;28;20455;-58
2022/06/07 02:52:45;;;;;;;18.45;11.07;;;11.60;99.90;;;;;;5001628;28;20125;-57
2022/06/07 02:55:11;;;;;;;18.73;11.65;;;11.60;99.90;;;;;;5001020;28;20108;-58
2022/06/07 02:57:36;;;;;;;21.33;11.95;;;11.50;99.90;;;;;;5002010;28;20050;-57
2022/06/07 03:00:05;;;;;;;18.83;11.88;;;11.50;99.90;;;;;;4982938;28;20050;-57
2022/06/07 03:02:31;;;;;;;20.63;12.43;;;11.50;99.90;;;;;;5001764;28;20088;-58
2022/06/07 03:04:57;;;;;;;19.67;12.38;;;11.40;99.90;;;;;;5000466;28;20042;-57
2022/06/07 03:07:22;;;;;;;22.25;13.50;;;11.50;99.90;;;;;;5001432;28;20157;-57
2022/06/07 03:09:48;;;;;;;21.05;12.23;;;11.40;99.90;;;;;;5001025;28;20049;-58
2022/06/07 03:12:13;;;;;;;17.02;11.02;;;11.30;99.90;;;;;;5000782;28;20532;-58
2022/06/07 03:14:39;;;;;;;21.63;12.13;;;11.30;99.90;;;;;;5001280;28;20057;-58
2022/06/07 03:17:06;;;;;;;20.77;11.30;;;11.40;99.90;;;;;;4999955;28;20038;-58
2022/06/07 03:19:32;;;;;;;26.10;11.55;;;11.30;99.90;;;;;;5001629;28;20073;-58
2022/06/07 03:21:58;;;;;;;20.92;12.27;;;11.40;99.90;;;;;;5002765;28;20038;-57
2022/06/07 03:24:26;;;;;;;21.65;11.52;;;11.30;99.90;;;;;;5020908;28;20546;-58
2022/06/07 03:26:52;;;;;;;18.80;10.48;;;11.20;99.90;;;;;;5020328;28;20046;-58
2022/06/07 03:29:18;;;;;;;22.08;11.73;;;11.20;99.90;;;;;;5020355;28;20104;-58
2022/06/07 03:31:45;;;;;;;19.58;11.25;;;11.20;99.90;;;;;;5020847;28;20033;-57
2022/06/07 03:34:11;;;;;;;18.85;11.32;;;11.20;99.90;;;;;;5019447;28;20050;-57
2022/06/07 03:36:37;;;;;;;22.13;10.50;;;11.20;99.90;;;;;;5021149;28;20045;-58
2022/06/07 03:39:07;;;;;;;17.67;10.43;;;11.10;99.90;;;;;;5019485;28;20046;-58
2022/06/07 03:41:33;;;;;;;19.25;10.85;;;11.10;99.90;;;;;;5020513;28;20050;-58
2022/06/07 03:43:59;;;;;;;21.13;10.73;;;11.10;99.90;;;;;;5020086;28;20084;-57
2022/06/07 03:46:27;;;;;;;18.95;9.68;;;11.20;99.90;;;;;;5020015;28;20556;-58
2022/06/07 03:48:53;;;;;;;18.10;9.25;;;11.20;99.90;;;;;;5014916;28;20042;-58
2022/06/07 03:51:22;;;;;;;16.40;9.95;;;11.10;99.90;;;;;;4999704;28;20483;-58
2022/06/07 03:53:49;;;;;;;16.13;9.90;;;11.10;99.90;;;;;;4983604;28;20054;-58
2022/06/07 03:56:15;;;;;;;15.73;9.40;;;11.20;99.90;;;;;;4999885;28;20038;-58
2022/06/07 03:58:41;;;;;;;17.98;9.73;;;11.10;99.90;;;;;;5000772;28;20038;-58
2022/06/07 04:01:09;;;;;;;15.80;7.82;;;11.10;99.90;;;;;;5000497;28;20074;-57
2022/06/07 04:03:35;;;;;;;19.27;8.18;;;11.20;99.90;;;;;;5000090;28;20051;-57
2022/06/07 04:06:02;;;;;;;14.48;8.60;;;11.10;99.90;;;;;;5000955;28;20185;-57
2022/06/07 04:08:28;;;;;;;14.90;7.55;;;11.10;99.90;;;;;;4999583;28;20054;-58
2022/06/07 04:11:02;;;;;;;13.30;7.57;;;11.20;99.90;;;;;;5000934;28;20073;-58
2022/06/07 04:13:30;;;;;;;16.20;7.53;;;11.10;99.90;;;;;;4999244;28;20122;-58
2022/06/07 04:15:56;;;;;;;16.05;8.10;;;11.00;99.90;;;;;;5000815;28;20049;-58
2022/06/07 04:18:22;;;;;;;12.25;7.25;;;11.10;99.90;;;;;;4982818;28;20042;-58
2022/06/07 04:20:48;;;;;;;15.48;7.43;;;11.00;99.90;;;;;;4999881;28;20041;-57
2022/06/07 04:23:21;;;;;;;13.25;7.10;;;11.10;99.90;;;;;;5013862;28;20057;-57
2022/06/07 04:25:47;;;;;;;20.17;8.05;;;11.00;99.90;;;;;;5019009;28;20041;-58
2022/06/07 04:28:13;;;;;;;20.48;7.82;;;11.00;99.90;;;;;;5018064;28;20053;-57
2022/06/07 04:30:44;;;;;;;14.13;7.13;;;11.00;99.90;;;;;;5015999;28;20038;-58
2022/06/07 04:33:10;;;;;;;17.25;8.55;;;11.10;99.90;;;;;;5016829;28;20042;-58
2022/06/07 04:35:36;;;;;;;16.00;7.97;;;11.20;99.90;;;;;;4999009;28;20050;-57
2022/06/07 04:38:02;;;;;;;19.88;7.72;;;11.10;99.90;;;;;;5016133;28;20052;-58
2022/06/07 04:40:27;;;;;;;17.70;7.70;;;11.30;99.90;;;;;;5016859;28;20453;-59
2022/06/07 04:42:53;;;;;;;21.55;9.43;;;11.20;99.90;;;;;;5017553;28;20050;-58
2022/06/07 04:45:19;;;;;;;15.30;7.57;;;11.20;99.90;;;;;;5020816;28;20048;-58
2022/06/07 04:47:46;;;;;;;14.32;7.15;;;11.40;99.90;;;;;;5019167;28;20060;-58
2022/06/07 04:50:15;;;;;;;12.60;7.00;;;11.30;99.90;;;;;;5004080;28;20049;-57
2022/06/07 04:52:45;;;;;;;20.00;7.93;;;11.30;99.90;;;;;;5002040;28;20101;-58
2022/06/07 04:55:12;;;;;;;14.30;6.63;;;11.40;99.90;;;;;;5002983;28;20121;-58
2022/06/07 04:57:38;;;;;;;17.98;6.55;;;11.30;99.90;;;;;;5003896;28;20100;-58
2022/06/07 05:00:07;;;;;;;16.55;6.13;;;11.30;99.90;;;;;;5001762;28;20042;-58
2022/06/07 05:02:35;;;;;;;16.45;5.75;;;11.30;99.90;;;;;;5003241;28;20054;-58
2022/06/07 05:05:02;;;;;;;15.30;5.70;;;11.30;99.90;;;;;;5002118;28;20039;-58
2022/06/07 05:07:28;;;;;;;13.15;5.82;;;11.30;99.90;;;;;;5003036;28;20057;-58
2022/06/07 05:09:53;;;;;;;15.80;5.80;;;11.40;99.90;;;;;;5003004;28;20046;-57
2022/06/07 05:12:19;;;;;;;12.70;4.90;;;11.50;99.90;;;;;;5001083;28;20039;-57
2022/06/07 05:14:45;;;;;;;15.73;5.63;;;11.40;99.90;;;;;;5002000;28;20038;-58
2022/06/07 05:17:11;;;;;;;14.18;5.72;;;11.50;99.90;;;;;;4984409;28;20046;-58
2022/06/07 05:19:38;;;;;;;15.00;6.18;;;11.50;99.90;;;;;;5003663;28;20042;-58
2022/06/07 05:22:04;;;;;;;13.30;5.82;;;11.50;99.90;;;;;;5005906;28;20038;-57
2022/06/07 05:24:29;;;;;;;15.18;7.32;;;11.60;99.90;;;;;;5023001;28;20038;-57
2022/06/07 05:26:59;;;;;;;14.95;6.38;;;11.50;99.90;;;;;;5022791;28;20071;-58
2022/06/07 05:29:53;;;;;;;16.45;7.22;;;11.50;99.90;;;;;;5022100;28;20049;-57
2022/06/07 05:32:19;;;;;;;14.73;6.45;;;11.30;99.90;;;;;;5023418;28;20042;-58
2022/06/07 05:34:45;;;;;;;17.25;6.78;;;11.30;99.90;;;;;;5021572;28;20065;-57
2022/06/07 05:37:15;;;;;;;16.08;7.28;;;11.10;99.90;;;;;;5023060;28;20038;-57
2022/06/07 05:39:40;;;;;;;20.80;9.20;;;11.10;99.90;;;;;;5022292;28;20042;-57
2022/06/07 05:42:07;;;;;;;13.70;7.30;;;10.90;99.90;;;;;;5021879;28;20073;-58
2022/06/07 05:44:34;;;;;;;14.18;7.05;;;11.10;99.90;;;;;;5022932;28;20033;-58
2022/06/07 05:47:00;;;;;;;14.85;6.53;;;11.20;99.90;;;;;;5021405;28;20094;-58
2022/06/07 05:49:26;;;;;;;11.77;5.95;;;11.00;99.90;;;;;;5005062;28;20105;-57
2022/06/07 05:51:51;;;;;;;12.25;5.80;;;11.10;99.90;;;;;;5021346;28;20077;-58
2022/06/07 05:54:17;;;;;;;12.88;6.68;;;11.00;99.90;;;;;;5022426;28;20046;-58
2022/06/07 05:56:43;;;;;;;13.82;5.75;;;11.10;99.90;;;;;;5021889;28;20410;-58
2022/06/07 05:59:09;;;;;;;15.52;7.60;;;11.20;99.90;;;;;;5021996;28;20469;-58
2022/06/07 06:01:35;;;;;;;13.55;5.95;;;11.20;99.90;;;;;;5004724;28;20532;-58
2022/06/07 06:04:03;;;;;;;13.52;5.30;;;11.20;99.90;;;;;;5021187;28;20045;-58
2022/06/07 06:06:30;;;;;;;13.38;4.38;;;11.00;99.90;;;;;;5022662;28;20042;-58
2022/06/07 06:11:40;;;;;;;11.05;4.30;;;11.20;99.90;;;;;;5022224;28;20100;-58
2022/06/07 06:14:05;;;;;;;14.70;4.20;;;11.20;99.90;;;;;;5021373;28;20053;-58
2022/06/07 06:16:31;;;;;;;11.40;4.28;;;11.20;99.90;;;;;;5021204;28;20065;-58
2022/06/07 06:18:58;;;;;;;9.43;3.88;;;11.40;99.90;;;;;;5022251;28;20053;-58
2022/06/07 06:21:31;;;;;;;11.35;3.60;;;11.50;99.90;;;;;;5020488;28;20710;-58
2022/06/07 06:23:58;;;;;;;9.18;3.03;;;11.30;99.90;;;;;;5022016;28;20045;-58
2022/06/07 06:26:25;;;;;;;13.25;3.08;;;11.50;99.90;;;;;;5003327;28;20050;-58
2022/06/07 06:28:50;;;;;;;7.72;2.25;;;11.50;99.90;;;;;;5021613;28;20524;-58
2022/06/07 06:31:17;;;;;;;10.75;2.30;;;11.50;99.90;;;;;;5021718;28;20045;-58
2022/06/07 06:33:46;;;;;;;6.75;2.45;;;11.30;99.90;;;;;;5020945;28;20041;-58
2022/06/07 06:36:15;;;;;;;10.32;2.30;;;11.50;99.90;;;;;;5021792;28;20054;-58
2022/06/07 06:38:43;;;;;;;8.40;2.40;;;11.60;99.90;;;;;;5020320;28;20050;-58
2022/06/07 06:41:16;;;;;;;9.32;2.28;;;11.50;99.90;;;;;;5021657;28;20042;-57
2022/06/07 06:43:43;;;;;;;9.63;2.08;;;11.50;99.90;;;;;;5003016;28;20517;-57
2022/06/07 06:46:15;;;;;;;7.00;2.17;;;11.60;99.90;;;;;;5021241;28;20041;-58
2022/06/07 06:48:43;;;;;;;11.98;2.95;;;11.80;99.90;;;;;;5021447;28;20089;-58
2022/06/07 06:51:11;;;;;;;6.45;2.00;;;11.80;99.90;;;;;;5020353;28;20083;-57
2022/06/07 06:53:38;;;;;;;9.88;2.58;;;12.00;99.90;;;;;;5021684;28;20046;-57
2022/06/07 06:56:04;;;;;;;9.57;2.67;;;11.90;99.90;;;;;;5020173;28;20053;-57
2022/06/07 06:58:30;;;;;;;13.73;2.97;;;11.90;99.90;;;;;;5021372;28;20129;-56
2022/06/07 07:01:09;;;;;;;12.45;3.22;;;11.90;99.90;;;;;;5020699;28;20101;-58
2022/06/07 07:03:36;;;;;;;10.13;2.63;;;11.80;99.90;;;;;;5020548;28;20111;-58
2022/06/07 07:06:04;;;;;;;11.63;3.15;;;11.90;99.90;;;;;;5020916;28;20058;-57
2022/06/07 07:08:30;;;;;;;10.98;3.05;;;11.90;99.90;;;;;;5019860;28;20072;-58
2022/06/07 07:11:07;;;;;;;13.55;3.50;;;11.90;99.90;;;;;;5021503;28;20072;-57
2022/06/07 07:13:32;;;;;;;13.98;4.15;;;12.00;99.90;;;;;;5019684;28;20069;-58
2022/06/07 07:15:58;;;;;;;11.60;2.90;;;12.00;99.90;;;;;;5003190;28;20046;-58
2022/06/07 07:18:24;;;;;;;14.07;3.67;;;12.00;99.90;;;;;;5020981;28;20050;-58
2022/06/07 07:20:50;;;;;;;10.93;3.00;;;12.00;99.90;;;;;;5020133;28;20494;-58
2022/06/07 07:23:16;;;;;;;18.40;4.15;;;12.10;99.90;;;;;;5021041;28;20049;-58
2022/06/07 07:25:42;;;;;;;14.85;3.95;;;12.20;99.90;;;;;;5019535;28;20049;-58
2022/06/07 07:28:08;;;;;;;14.52;3.17;;;12.30;99.90;;;;;;5021322;28;20053;-56
2022/06/07 07:30:33;;;;;;;15.20;3.15;;;12.30;99.90;;;;;;5019440;28;20052;-58
2022/06/07 07:32:59;;;;;;;14.80;3.25;;;12.20;99.90;;;;;;5021011;28;20049;-58
2022/06/07 07:35:25;;;;;;;16.75;3.20;;;12.20;99.90;;;;;;5020388;28;20129;-59
2022/06/07 07:37:51;;;;;;;8.80;2.38;;;12.20;99.90;;;;;;5019899;28;20104;-58
2022/06/07 07:40:17;;;;;;;13.40;3.83;;;12.20;99.90;;;;;;5020798;28;20161;-58
2022/06/07 07:42:42;;;;;;;15.90;2.97;;;12.30;99.90;;;;;;5019246;28;20046;-58
2022/06/07 07:45:10;;;;;;;11.10;2.00;;;11.80;99.90;;;;;;5003260;28;20045;-59
2022/06/07 07:47:35;;;;;;;11.70;2.13;;;11.80;99.90;;;;;;5019467;28;20048;-58
2022/06/07 07:50:02;;;;;;;9.63;1.90;;;11.80;99.90;;;;;;5020442;28;20085;-58
2022/06/07 07:52:28;;;;;;;12.63;2.50;;;11.80;99.90;;;;;;5020186;28;20053;-58
2022/06/07 07:54:54;;;;;;;11.80;2.53;;;11.80;99.90;;;;;;5019951;28;20512;-58
2022/06/07 07:57:19;;;;;;;8.73;1.75;;;11.90;99.90;;;;;;5020818;28;20047;-58
2022/06/07 07:59:45;;;;;;;8.70;2.00;;;11.80;99.90;;;;;;5019369;28;20085;-59
2022/06/07 08:02:20;;;;;;;15.43;2.15;;;11.90;99.90;;;;;;5020679;28;20046;-59
2022/06/07 08:04:45;;;;;;;9.18;2.00;;;11.90;99.90;;;;;;5019490;28;20097;-58
2022/06/07 08:07:11;;;;;;;10.23;2.13;;;12.00;99.90;;;;;;5020404;28;20041;-58
2022/06/07 08:09:37;;;;;;;10.98;2.22;;;12.20;99.90;;;;;;5019882;28;20306;-58
2022/06/07 08:12:06;;;;;;;9.75;2.35;;;12.20;99.90;;;;;;5019817;28;20593;-58
2022/06/07 08:14:33;;;;;;;12.63;2.15;;;12.40;99.90;;;;;;5020214;28;20058;-58
2022/06/07 08:16:59;;;;;;;11.10;2.10;;;12.30;99.90;;;;;;5019857;28;20038;-58
2022/06/07 08:19:26;;;;;;;15.13;2.58;;;12.40;99.90;;;;;;5024554;28;20579;-58
2022/06/07 08:21:52;;;;;;;13.75;2.60;;;12.70;99.90;;;;;;5022944;28;20046;-58
2022/06/07 08:24:18;;;;;;;8.43;2.20;;;12.70;99.90;;;;;;5024396;28;20041;-58
2022/06/07 08:26:46;;;;;;;9.02;2.15;;;12.80;99.90;;;;;;5023701;28;20037;-57
2022/06/07 08:29:12;;;;;;;14.93;2.45;;;12.90;99.90;;;;;;5023517;28;20050;-58
2022/06/07 08:31:39;;;;;;;12.30;2.22;;;13.00;99.90;;;;;;5024298;28;20038;-58
2022/06/07 08:39:34;;;;;;;9.18;2.00;;;13.10;99.90;;;;;;5023478;28;20054;-57
2022/06/07 08:42:21;;;;;;;9.18;2.05;;;13.00;99.90;;;;;;5023330;28;20127;-58
2022/06/07 08:44:49;;;;;;;8.88;1.83;;;13.00;99.90;;;;;;5024110;28;20073;-58
2022/06/07 08:47:23;;;;;;;9.98;2.17;;;13.00;99.90;;;;;;5022337;28;20077;-58
2022/06/07 08:49:51;;;;;;;8.48;1.98;;;13.00;99.90;;;;;;5023962;28;20061;-59
2022/06/07 08:52:23;;;;;;;9.10;2.00;;;13.00;99.90;;;;;;5022766;28;20093;-58
2022/06/07 08:54:49;;;;;;;8.27;1.75;;;13.00;99.90;;;;;;5023192;28;20097;-58
2022/06/07 08:57:27;;;;;;;10.82;1.75;;;13.00;99.90;;;;;;5023775;28;20042;-57
2022/06/07 09:00:00;;;;;;;10.95;1.65;;;13.00;99.90;;;;;;5022407;28;20105;-59
2022/06/07 09:02:45;;;;;;;8.27;1.45;;;13.10;99.90;;;;;;5023775;28;20042;-56
2022/06/07 09:05:16;;;;;;;9.35;1.42;;;13.00;99.90;;;;;;5022936;28;20049;-58
2022/06/07 09:07:43;;;;;;;10.15;1.90;;;13.00;99.90;;;;;;5022687;28;20180;-58
2022/06/07 09:13:08;;;;;;;12.30;2.15;;;12.80;99.90;;;;;;5021665;28;20085;-59
2022/06/07 09:15:36;;;;;;;11.27;2.47;;;12.80;99.90;;;;;;5023202;28;20069;-59
2022/06/07 09:18:05;;;;;;;10.70;2.10;;;12.60;99.90;;;;;;5022678;28;20072;-59
2022/06/07 09:20:37;;;;;;;14.40;2.75;;;12.50;99.90;;;;;;5005138;28;20494;-59
2022/06/07 09:23:29;;;;;;;11.82;1.90;;;12.50;99.90;;;;;;5023096;28;20058;-58
2022/06/07 09:25:58;;;;;;;11.38;1.52;;;12.40;99.90;;;;;;5021854;28;20096;-57
2022/06/07 09:28:28;;;;;;;11.95;1.88;;;12.40;99.90;;;;;;5022428;28;20050;-58
2022/06/07 09:31:11;;;;;;;9.00;2.40;;;12.50;99.90;;;;;;5022316;28;20088;-58
2022/06/07 09:34:02;;;;;;;9.55;1.67;;;12.50;99.90;;;;;;5021871;28;20042;-58
2022/06/07 09:36:29;;;;;;;8.93;1.85;;;12.50;99.90;;;;;;5023001;28;20045;-59
2022/06/07 09:39:04;;;;;;;8.65;2.85;;;12.60;99.90;;;;;;5021689;28;20046;-59
2022/06/07 09:41:36;;;;;;;9.07;1.60;;;12.70;99.90;;;;;;5022594;28;20046;-59
2022/06/07 09:44:25;;;;;;;15.98;2.45;;;12.80;99.90;;;;;;5021936;28;20494;-59
2022/06/07 09:47:02;;;;;;;9.60;2.22;;;13.00;99.90;;;;;;5020987;28;20507;-59
2022/06/07 09:49:45;;;;;;;9.98;2.20;;;13.10;99.90;;;;;;5022724;28;20405;-58
2022/06/07 09:52:25;;;;;;;11.25;2.40;;;13.20;99.90;;;;;;5021455;28;20053;-59
2022/06/07 09:55:18;;;;;;;11.43;2.65;;;13.20;99.90;;;;;;5021748;28;20124;-58
2022/06/07 09:58:10;;;;;;;11.88;2.55;;;13.40;99.90;;;;;;5022544;28;20516;-59
2022/06/07 10:00:45;;;;;;;12.90;2.63;;;13.40;99.90;;;;;;5021343;28;20102;-59
2022/06/07 10:03:22;;;;;;;11.00;2.53;;;13.40;99.90;;;;;;5021815;28;20045;-59
2022/06/07 10:05:53;;;;;;;12.57;2.33;;;13.40;99.90;;;;;;5022470;28;20078;-59
2022/06/07 10:08:25;;;;;;;14.02;2.50;;;13.40;99.90;;;;;;5021137;28;20042;-59
2022/06/07 10:10:59;;;;;;;11.93;2.17;;;13.40;99.90;;;;;;5022555;28;20046;-59
2022/06/07 10:13:34;;;;;;;17.48;4.05;;;13.50;99.90;;;;;;5020717;28;20060;-59
2022/06/07 10:16:30;;;;;;;11.93;2.33;;;13.60;99.90;;;;;;5022048;28;20679;-59
2022/06/07 10:19:02;;;;;;;15.00;2.90;;;13.80;99.90;;;;;;5022389;28;20081;-59
2022/06/07 10:21:50;;;;;;;9.55;2.17;;;13.80;99.90;;;;;;5020760;28;20065;-57
2022/06/07 10:24:40;;;;;;;11.05;2.17;;;13.80;99.90;;;;;;5002323;28;20049;-57
2022/06/07 10:27:13;;;;;;;11.60;2.15;;;13.60;99.90;;;;;;5002374;28;20046;-58
2022/06/07 10:29:58;;;;;;;8.77;1.67;;;13.40;99.90;;;;;;5000905;28;20506;-58
2022/06/07 10:33:06;;;;;;;9.25;1.75;;;13.30;99.90;;;;;;5002262;28;20046;-57
2022/06/07 10:35:50;;;;;;;12.43;2.35;;;13.20;99.90;;;;;;5001970;28;20082;-57
2022/06/07 10:39:04;;;;;;;9.10;2.17;;;13.20;99.90;;;;;;5000777;28;20038;-56
2022/06/07 10:41:52;;;;;;;12.57;2.20;;;13.20;99.90;;;;;;4931067;28;20127;-58
2022/06/07 10:44:30;;;;;;;11.35;2.00;;;13.20;99.90;;;;;;5001770;28;20050;-58
2022/06/07 10:47:00;;;;;;;11.05;2.40;;;13.10;99.90;;;;;;4983148;28;20046;-58
2022/06/07 10:49:43;;;;;;;11.55;2.50;;;13.00;99.90;;;;;;5002180;28;20053;-58
2022/06/07 10:52:20;;;;;;;12.30;2.88;;;13.10;99.90;;;;;;5001223;28;20047;-58
2022/06/07 10:55:01;;;;;;;9.02;1.90;;;13.20;99.90;;;;;;5001164;28;20054;-58
2022/06/07 10:57:30;;;;;;;8.25;2.10;;;13.30;99.90;;;;;;5002022;28;20422;-58
2022/06/07 10:59:59;;;;;;;11.15;2.15;;;13.40;99.90;;;;;;5000241;28;20142;-58
2022/06/07 11:02:41;;;;;;;7.75;1.63;;;13.50;99.90;;;;;;5001986;28;20051;-59
2022/06/07 11:11:10;;;;;;;9.68;2.13;;;14.00;99.90;;;;;;5001150;28;20039;-56
2022/06/07 11:14:00;;;;;;;10.80;2.08;;;14.20;99.90;;;;;;4999949;28;20880;-57
2022/06/07 11:16:56;;;;;;;7.13;1.90;;;14.20;99.90;;;;;;5000307;28;20062;-58
2022/06/07 11:19:22;;;;;;;6.65;1.48;;;14.20;99.90;;;;;;4966589;28;20085;-58
2022/06/07 11:21:53;;;;;;;6.85;1.60;;;14.30;99.90;;;;;;5001473;28;20042;-58
2022/06/07 11:24:27;;;;;;;5.90;1.50;;;14.30;99.90;;;;;;5020900;28;20527;-58
2022/06/07 11:26:53;;;;;;;6.70;1.70;;;14.50;99.90;;;;;;5020869;28;20058;-58
2022/06/07 11:29:30;;;;;;;10.10;1.90;;;14.70;99.90;;;;;;5019969;28;20643;-57
2022/06/07 11:31:57;;;;;;;10.27;2.40;;;14.80;99.90;;;;;;5021121;28;20096;-58
2022/06/07 11:34:25;;;;;;;7.20;1.63;;;14.80;99.90;;;;;;5019474;28;20046;-58
2022/06/07 11:37:02;;;;;;;7.35;1.75;;;14.50;99.90;;;;;;5021061;28;20038;-58
2022/06/07 11:39:52;;;;;;;6.88;1.42;;;14.40;99.90;;;;;;5020327;28;20054;-56
2022/06/07 11:42:19;;;;;;;7.85;1.70;;;14.30;99.90;;;;;;5018982;28;20700;-59
2022/06/07 11:45:10;;;;;;;6.60;1.50;;;14.30;99.90;;;;;;5020661;28;20069;-59
2022/06/07 11:48:22;;;;;;;6.20;1.52;;;14.20;99.90;;;;;;5007398;28;20058;-59
2022/06/07 11:51:13;;;;;;;7.70;1.80;;;14.20;99.90;;;;;;5015435;28;20046;-59
2022/06/07 11:53:56;;;;;;;10.15;1.88;;;14.20;99.90;;;;;;5021040;28;20042;-59
2022/06/07 11:56:45;;;;;;;9.80;1.92;;;14.30;99.90;;;;;;5019616;28;20050;-58
2022/06/07 11:59:18;;;;;;;7.05;1.52;;;14.20;99.90;;;;;;5019321;28;20073;-59
2022/06/07 12:02:06;;;;;;;8.27;1.90;;;14.20;99.90;;;;;;5020677;28;20512;-59
2022/06/07 12:04:40;;;;;;;7.88;1.95;;;14.30;99.90;;;;;;5001955;28;20384;-59
2022/06/07 12:07:23;;;;;;;6.35;1.48;;;14.50;99.90;;;;;;5020659;28;20409;-58
2022/06/07 12:10:01;;;;;;;4.95;1.38;;;14.70;99.90;;;;;;5020265;28;20431;-58
2022/06/07 12:12:34;;;;;;;7.93;1.25;;;14.90;99.90;;;;;;5018982;28;20042;-58
2022/06/07 12:15:22;;;;;;;5.32;1.52;;;14.90;99.90;;;;;;5020441;28;20046;-58
2022/06/07 12:18:19;;;;;;;6.20;1.70;;;14.80;99.90;;;;;;5019430;28;20069;-58
2022/06/07 12:21:02;;;;;;;5.80;1.80;;;14.80;99.90;;;;;;5019279;28;20097;-57
2022/06/07 12:23:37;;;;;;;6.78;1.52;;;14.70;99.90;;;;;;5020568;28;20050;-58
2022/06/07 12:26:15;;;;;;;5.88;1.65;;;14.80;99.90;;;;;;5019221;28;20041;-58
2022/06/07 12:28:58;;;;;;;8.05;1.55;;;14.90;99.90;;;;;;5020281;28;20113;-58
2022/06/07 12:32:00;;;;;;;4.97;1.63;;;15.10;99.90;;;;;;5020426;28;20088;-57
2022/06/07 12:34:32;;;;;;;5.30;1.48;;;15.20;99.90;;;;;;5018891;28;20106;-59
2022/06/07 12:37:08;;;;;;;9.45;2.00;;;15.00;99.90;;;;;;5020315;28;20050;-58
2022/06/07 12:40:01;;;;;;;8.20;1.92;;;15.00;99.90;;;;;;5019561;28;20056;-57
2022/06/07 12:42:32;;;;;;;5.68;1.63;;;15.70;99.90;;;;;;5018591;28;20069;-58
2022/06/07 12:45:21;;;;;;;7.45;1.70;;;15.90;99.90;;;;;;5020024;28;20057;-57
2022/06/07 12:47:54;;;;;;;6.28;1.33;;;16.10;99.90;;;;;;5019127;28;20627;-59
2022/06/07 12:50:24;;;;;;;7.20;1.58;;;16.10;99.90;;;;;;5019483;28;20038;-58
2022/06/07 12:52:54;;;;;;;7.10;1.42;;;16.10;99.90;;;;;;5020144;28;20042;-57
2022/06/07 12:55:27;;;;;;;5.65;1.40;;;16.00;99.90;;;;;;5018756;28;20103;-60
2022/06/07 12:57:57;;;;;;;6.93;1.60;;;15.90;99.90;;;;;;5020401;28;20050;-58
2022/06/07 13:00:29;;;;;;;6.30;1.33;;;15.80;99.90;;;;;;5018814;28;20061;-59
2022/06/07 13:03:04;;;;;;;9.10;2.00;;;15.60;99.90;;;;;;5020448;28;20046;-59
2022/06/07 13:05:33;;;;;;;8.38;2.33;;;15.50;99.90;;;;;;5023418;28;20038;-58
2022/06/07 13:08:01;;;;;;;8.70;1.70;;;15.30;99.90;;;;;;5022416;28;20105;-59
2022/06/07 13:10:33;;;;;;;5.72;1.40;;;15.20;99.90;;;;;;5023761;28;20076;-59
2022/06/07 13:13:02;;;;;;;7.32;1.52;;;15.30;99.90;;;;;;5021668;28;20088;-58
2022/06/07 13:15:37;;;;;;;7.30;1.73;;;15.20;99.90;;;;;;5022939;28;20049;-58
2022/06/07 13:18:06;;;;;;;5.28;1.60;;;15.10;99.90;;;;;;5022918;28;20069;-59
2022/06/07 13:20:37;;;;;;;7.07;1.55;;;15.10;99.90;;;;;;5022511;28;20082;-58